Terminal Aerodrome Forecast
Issued by NWS

Home | Current Version | Previous Version | Text Only | Print | Product List | Glossary On
Versions: 1 2 3 4 5 6 7 8 9 10 11 12 13 14 15 16
533
FTUS43 KGRR 092340
TAFAZO
TAF
KAZO 092340Z 1000/1024 30013G21KT 4SM -SHSN SCT015 BKN025
      TEMPO 1000/1004 2SM -SHSN BKN015
     FM100400 31014G23KT 2SM -SHSN BLSN BKN015
     FM101200 33014G23KT 5SM -SHSN BKN035=

USA.gov is the U.S. government's official web portal to all federal, state and local government web resources and services.